Time;durP1;ratioP1;P1;durP2;ratioP2;P2;SDS_P1;SDS_P2;PMS_P1;PMS_P2;Temp;Humidity;BMP_temperature;BMP_pressure;BME280_temperature;BME280_humidity;BME280_pressure;Samples;Min_cycle;Max_cycle;Signal;HPM_P1;HPM_P2
2022/12/17 13:08:03;;;;;;;;;;;;;;;-144.99;40.25;52403.25;4958735;28;20056;-68
2022/12/17 13:10:31;;;;;;;;;;;;;;;-144.99;38.95;52415.47;4971077;28;20015;-68
2022/12/17 13:13:05;;;;;;;;;;;;;;;-144.99;38.90;52393.06;4970983;28;19967;-71
2022/12/17 13:15:36;;;;;;;;;;;;;;;-144.99;39.37;52395.09;4970432;28;19933;-69
2022/12/17 13:18:06;;;;;;;;;;;;;;;-144.99;38.51;52452.16;4970450;28;19926;-68
2022/12/17 13:20:34;;;;;;;;;;;;;;;-144.99;39.36;52419.56;4970537;28;19961;-69
2022/12/17 13:23:25;;;;;;;;;;;;;;;-144.99;39.61;52452.16;4970215;28;19949;-68
2022/12/17 13:26:03;;;;;;;;;;;;;;;-144.99;40.48;52492.94;4962274;28;19962;-68
2022/12/17 13:28:31;;;;;;;;;;;;;;;-144.99;40.10;52425.66;4961871;28;19971;-69
2022/12/17 13:31:04;;;;;;;;;;;;;;;-144.99;39.10;52423.63;4973298;28;19976;-70
2022/12/17 13:33:38;;;;;;;;;;;;;;;-144.99;38.75;52435.88;4974422;28;20001;-68
2022/12/17 13:36:08;;;;;;;;;;;;;;;-144.99;38.72;52448.09;4970502;28;19934;-69
2022/12/17 13:38:41;;;;;;;;;;;;;;;-144.99;38.96;52452.16;4970682;28;19961;-69
2022/12/17 13:41:09;;;;;;;;;;;;;;;-144.99;38.88;52419.56;4970436;28;19926;-69
2022/12/17 13:43:42;;;;;;;;;;;;;;;-144.99;38.52;52423.63;4970162;28;19954;-69
2022/12/17 13:46:16;;;;;;;;;;;;;;;-144.99;38.38;52444.03;4973946;28;19948;-69
2022/12/17 13:48:43;;;;;;;;;;;;;;;-144.99;37.98;52456.25;4974190;28;19972;-68
2022/12/17 13:51:19;;;;;;;;;;;;;;;-144.99;38.00;52444.03;4974176;28;20009;-69
2022/12/17 13:53:51;;;;;;;;;;;;;;;-144.99;38.66;52452.16;4965979;28;19926;-69
2022/12/17 13:56:21;;;;;;;;;;;;;;;-144.99;39.52;52480.72;4966935;28;19957;-70
2022/12/17 13:58:52;;;;;;;;;;;;;;;-144.99;40.12;52505.16;4277124;28;10000739;-69
2022/12/17 14:01:19;;;;;;;;;;;;;;;-144.99;40.87;52509.25;4963924;28;19957;-69
2022/12/17 14:03:50;;;;;;;;;;;;;;;-144.99;41.11;52468.47;4971276;28;19989;-68
2022/12/17 14:06:17;;;;;;;;;;;;;;;-144.99;41.57;52525.56;4971427;28;20147;-68
2022/12/17 14:08:44;;;;;;;;;;;;;;;-144.99;41.52;52505.16;4971657;28;20367;-71
2022/12/17 14:13:57;;;;;;;;;;;;;;;-144.99;42.69;52547.97;4961504;28;19999;-69
2022/12/17 14:16:23;;;;;;;;;;;;;;;-144.99;43.28;52572.44;4964547;28;19979;-69
2022/12/17 14:18:52;;;;;;;;;;;;;;;-144.99;43.82;52556.13;4960240;28;20051;-69
2022/12/17 14:21:18;;;;;;;;;;;;;;;-144.99;44.68;52586.69;4963215;28;19980;-70
2022/12/17 14:23:48;;;;;;;;;;;;;;;-144.99;46.33;52635.63;4970388;28;19926;-70
2022/12/17 14:26:14;;;;;;;;;;;;;;;-144.99;48.82;52688.63;4970078;28;20272;-70
2022/12/17 14:28:45;;;;;;;;;;;;;;;-144.99;51.03;52643.78;4970291;28;19930;-71
2022/12/17 14:31:19;;;;;;;;;;;;;;;-144.99;53.71;52709.00;4968644;28;20033;-71
2022/12/17 14:33:46;;;;;;;;;;;;;;;-144.99;56.93;52721.22;4964806;28;20404;-71
2022/12/17 14:36:19;;;;;;;;;;;;;;;-144.99;59.86;52676.38;4972858;28;19933;-70
2022/12/17 14:38:51;;;;;;;;;;;;;;;-144.99;62.22;52664.16;4969563;28;19941;-72
2022/12/17 14:44:03;;;;;;;;;;;;;;;-144.99;66.63;52696.78;4972497;28;19937;-70
2022/12/17 14:46:31;;;;;;;;;;;;;;;-144.99;67.95;52696.78;4973500;28;19926;-71
2022/12/17 14:49:02;;;;;;;;;;;;;;;-144.99;69.55;52672.31;4972308;28;20398;-72
2022/12/17 14:51:30;;;;;;;;;;;;;;;-144.99;71.32;52660.09;4977977;28;19961;-73
2022/12/17 14:54:05;;;;;;;;;;;;;;;-144.99;72.92;52688.63;4978447;28;19931;-72
2022/12/17 14:56:31;;;;;;;;;;;;;;;-144.99;74.08;52696.78;4969450;28;20021;-71
2022/12/17 14:58:58;;;;;;;;;;;;;;;-144.99;75.16;52696.78;4967107;28;19941;-71
2022/12/17 15:01:25;;;;;;;;;;;;;;;-144.99;76.30;52717.16;4958016;28;20434;-72
2022/12/17 15:03:55;;;;;;;;;;;;;;;-144.99;77.04;52674.34;4966209;28;19934;-71
2022/12/17 15:06:22;;;;;;;;;;;;;;;-144.99;77.44;52696.78;4968353;28;20037;-72
2022/12/17 15:08:50;;;;;;;;;;;;;;;-144.99;78.43;52688.63;4973727;28;19934;-71
2022/12/17 15:11:17;;;;;;;;;;;;;;;-144.99;79.64;52696.78;4980028;28;19927;-71
2022/12/17 15:13:44;;;;;;;;;;;;;;;-144.99;80.85;52721.22;4981918;28;19926;-70
2022/12/17 15:16:11;;;;;;;;;;;;;;;-144.99;81.80;52664.16;4983837;28;19926;-70
2022/12/17 15:18:37;;;;;;;;;;;;;;;-144.99;83.54;52733.47;4973025;28;19938;-70
2022/12/17 15:21:05;;;;;;;;;;;;;;;-144.99;85.40;52692.69;4971672;28;20434;-71
2022/12/17 15:23:32;;;;;;;;;;;;;;;-144.99;86.25;52680.47;4969639;28;20458;-71
2022/12/17 15:25:59;;;;;;;;;;;;;;;-144.99;86.58;52688.63;4972592;28;20434;-70
2022/12/17 15:28:28;;;;;;;;;;;;;;;-144.99;87.21;52647.84;4973160;28;19930;-69
2022/12/17 15:30:54;;;;;;;;;;;;;;;-144.99;87.20;52680.47;4975737;28;20001;-71
2022/12/17 15:33:21;;;;;;;;;;;;;;;-144.99;87.58;52700.84;4980006;28;19965;-70
2022/12/17 15:35:47;;;;;;;;;;;;;;;-144.99;87.99;52668.22;4981703;28;20019;-70
2022/12/17 15:38:15;;;;;;;;;;;;;;;-144.99;88.53;52664.16;4987354;28;19972;-70
2022/12/17 15:40:42;;;;;;;;;;;;;;;-144.99;89.36;52690.66;4992644;28;19955;-69
2022/12/17 15:43:12;;;;;;;;;;;;;;;-144.99;89.21;52686.59;4970458;28;20437;-71
2022/12/17 15:45:40;;;;;;;;;;;;;;;-144.99;90.04;52717.16;4968983;28;20271;-70
2022/12/17 15:48:07;;;;;;;;;;;;;;;-144.99;90.86;52688.63;4975814;28;19933;-70
2022/12/17 15:50:33;;;;;;;;;;;;;;;-144.99;91.11;52658.03;4994538;28;19963;-70
2022/12/17 15:53:00;;;;;;;;;;;;;;;-144.99;91.28;52696.78;4991551;28;19930;-69
2022/12/17 15:55:28;;;;;;;;;;;;;;;-144.99;91.49;52688.63;4986450;28;19929;-70
2022/12/17 15:57:55;;;;;;;;;;;;;;;-144.99;92.15;52700.84;4985373;28;19976;-72
2022/12/17 16:00:21;;;;;;;;;;;;;;;-144.99;91.32;52676.38;4983981;28;19972;-71
2022/12/17 16:02:48;;;;;;;;;;;;;;;-144.99;91.28;52686.59;4988240;28;19930;-71
2022/12/17 16:05:15;;;;;;;;;;;;;;;-144.99;90.78;52660.09;4979767;28;19930;-68
2022/12/17 16:07:43;;;;;;;;;;;;;;;-144.99;90.70;52653.97;4987765;28;19930;-76
2022/12/17 16:10:10;;;;;;;;;;;;;;;-144.99;90.70;52700.84;4990596;28;19914;-76
2022/12/17 16:12:38;;;;;;;;;;;;;;;-144.99;91.18;52717.16;4991995;28;19951;-79
2022/12/17 16:15:06;;;;;;;;;;;;;;;-144.99;91.22;52651.94;4987969;28;19926;-77
2022/12/17 16:17:33;;;;;;;;;;;;;;;-144.99;91.26;52713.09;4992194;28;19968;-77
2022/12/17 16:20:00;;;;;;;;;;;;;;;-144.99;91.95;52702.88;4995220;28;20210;-77
2022/12/17 16:22:27;;;;;;;;;;;;;;;-144.99;92.86;52680.47;4994631;28;19920;-75
2022/12/17 16:24:54;;;;;;;;;;;;;;;-144.99;92.55;52690.66;4986602;28;19925;-78
2022/12/17 16:27:20;;;;;;;;;;;;;;;-144.99;92.65;52694.72;4990626;28;19921;-77
2022/12/17 16:29:48;;;;;;;;;;;;;;;-144.99;93.36;52680.47;4994885;28;20217;-77
2022/12/17 16:32:15;;;;;;;;;;;;;;;-144.99;93.61;52700.84;4994458;28;19940;-76
2022/12/17 16:34:42;;;;;;;;;;;;;;;-144.99;93.98;52666.19;4989291;28;19983;-76
2022/12/17 16:37:08;;;;;;;;;;;;;;;-144.99;94.48;52692.69;4990041;28;19922;-75
2022/12/17 16:39:35;;;;;;;;;;;;;;;-144.99;95.14;52668.22;4994053;28;19930;-75
2022/12/17 16:42:02;;;;;;;;;;;;;;;-144.99;95.61;52668.22;4993924;28;19921;-74
2022/12/17 16:44:28;;;;;;;;;;;;;;;-144.99;95.86;52680.47;4989833;28;19913;-74
2022/12/17 16:46:56;;;;;;;;;;;;;;;-144.99;95.62;52700.84;4990082;28;19970;-75
2022/12/17 16:49:24;;;;;;;;;;;;;;;-144.99;96.26;52668.22;4994097;28;19914;-75
2022/12/17 16:51:52;;;;;;;;;;;;;;;-144.99;96.89;52696.78;4991826;28;19945;-75
2022/12/17 16:54:19;;;;;;;;;;;;;;;-144.99;97.12;52709.00;4987417;28;19960;-76
2022/12/17 16:56:46;;;;;;;;;;;;;;;-144.99;97.61;52702.88;4988606;28;19941;-74
2022/12/17 16:59:14;;;;;;;;;;;;;;;-144.99;97.45;52643.78;4991579;28;19929;-78
2022/12/17 17:01:43;;;;;;;;;;;;;;;-144.99;97.59;52686.59;4979455;28;19937;-76
2022/12/17 17:04:11;;;;;;;;;;;;;;;-144.99;98.26;52664.16;4993550;28;19914;-75
2022/12/17 17:06:39;;;;;;;;;;;;;;;-144.99;98.82;52676.38;4987607;28;19914;-76
2022/12/17 17:09:06;;;;;;;;;;;;;;;-144.99;98.92;52680.47;4994381;28;19921;-76
2022/12/17 17:11:32;;;;;;;;;;;;;;;-144.99;99.30;52696.78;4992181;28;19953;-75
2022/12/17 17:13:59;;;;;;;;;;;;;;;-144.99;98.96;52664.16;4991525;28;19957;-74
2022/12/17 17:16:26;;;;;;;;;;;;;;;-144.99;99.00;52664.16;4990979;28;19949;-75
2022/12/17 17:18:53;;;;;;;;;;;;;;;-144.99;98.96;52692.69;4991134;28;19930;-75
2022/12/17 17:21:26;;;;;;;;;;;;;;;-144.99;99.29;52676.38;4994319;28;19926;-74
2022/12/17 17:23:55;;;;;;;;;;;;;;;-144.99;99.36;52670.28;4992282;28;19913;-74
2022/12/17 17:26:21;;;;;;;;;;;;;;;-144.99;99.27;52688.63;4993211;28;19941;-74
2022/12/17 17:28:48;;;;;;;;;;;;;;;-144.99;99.92;52672.31;4992731;28;19934;-74
2022/12/17 17:31:16;;;;;;;;;;;;;;;-144.99;99.71;52694.72;4975449;28;19930;-73
2022/12/17 17:33:43;;;;;;;;;;;;;;;-144.99;99.95;52709.00;4983300;28;19930;-74
2022/12/17 17:36:11;;;;;;;;;;;;;;;-144.99;100.00;52704.94;4983363;28;19942;-74
2022/12/17 17:38:40;;;;;;;;;;;;;;;-144.99;100.00;52692.69;4989612;28;20017;-74
2022/12/17 17:41:09;;;;;;;;;;;;;;;-144.99;100.00;52745.69;4995184;28;20001;-74
2022/12/17 17:43:35;;;;;;;;;;;;;;;-144.99;100.00;52639.69;4996625;28;20122;-75
2022/12/17 17:46:06;;;;;;;;;;;;;;;-144.99;100.00;52658.03;4997234;28;19914;-76
2022/12/17 17:48:33;;;;;;;;;;;;;;;-144.99;100.00;52688.63;4989098;28;19941;-77
2022/12/17 17:51:00;;;;;;;;;;;;;;;-144.99;100.00;52631.53;4998063;28;19914;-75
2022/12/17 17:53:27;;;;;;;;;;;;;;;-144.99;100.00;52688.63;4988042;28;19915;-75
2022/12/17 17:55:55;;;;;;;;;;;;;;;-144.99;100.00;52668.22;5010480;23;19989;-75
2022/12/17 17:58:22;;;;;;;;;;;;;;;-144.99;100.00;52676.38;5008061;28;19934;-76
2022/12/17 18:00:48;;;;;;;;;;;;;;;-144.99;100.00;52676.38;5001837;28;19937;-74
2022/12/17 18:03:15;;;;;;;;;;;;;;;-144.99;100.00;52684.53;5004493;28;19929;-77
2022/12/17 18:05:42;;;;;;;;;;;;;;;-144.99;100.00;52684.53;4985806;28;19930;-73
2022/12/17 18:08:09;;;;;;;;;;;;;;;-144.99;100.00;52656.00;4983767;28;20023;-74
2022/12/17 18:10:35;;;;;;;;;;;;;;;-144.99;100.00;52653.97;4988769;28;20398;-78
2022/12/17 18:15:48;;;;;;;;;;;;;;;-144.99;100.00;52660.09;4985647;28;19956;-73
2022/12/17 18:18:14;;;;;;;;;;;;;;;-144.99;100.00;52643.78;4986846;28;19936;-77
2022/12/17 18:20:41;;;;;;;;;;;;;;;-144.99;100.00;52676.38;4989750;28;20378;-73
2022/12/17 18:23:07;;;;;;;;;;;;;;;-144.99;100.00;52704.94;4986473;28;20441;-72
2022/12/17 18:25:34;;;;;;;;;;;;;;;-144.99;100.00;52674.34;4987329;28;19937;-75
2022/12/17 18:28:03;;;;;;;;;;;;;;;-144.99;100.00;52688.63;4989677;28;19995;-72
2022/12/17 18:30:30;;;;;;;;;;;;;;;-144.99;100.00;52680.47;4985853;28;19961;-74
2022/12/17 18:32:56;;;;;;;;;;;;;;;-144.99;100.00;52700.84;4990015;28;19955;-74
2022/12/17 18:35:23;;;;;;;;;;;;;;;-144.99;100.00;52672.31;4987922;28;19937;-73
2022/12/17 18:37:49;;;;;;;;;;;;;;;-144.99;100.00;52668.22;4988585;28;19926;-73
2022/12/17 18:40:16;;;;;;;;;;;;;;;-144.99;100.00;52702.88;4991236;28;20318;-72
2022/12/17 18:45:28;;;;;;;;;;;;;;;-144.99;100.00;52704.94;4987906;28;19937;-74
2022/12/17 18:47:54;;;;;;;;;;;;;;;-144.99;100.00;52684.53;4988255;28;19937;-74
2022/12/17 18:50:21;;;;;;;;;;;;;;;-144.99;100.00;52700.84;4990068;28;19930;-75
2022/12/17 18:52:48;;;;;;;;;;;;;;;-144.99;100.00;52668.22;4990134;28;19930;-73
2022/12/17 18:55:15;;;;;;;;;;;;;;;-144.99;100.00;52704.94;4990440;28;19940;-73
2022/12/17 18:57:41;;;;;;;;;;;;;;;-144.99;100.00;52709.00;4988592;28;19930;-75
2022/12/17 19:00:08;;;;;;;;;;;;;;;-144.99;100.00;52651.94;4991944;28;20000;-74
2022/12/17 19:02:36;;;;;;;;;;;;;;;-144.99;100.00;52696.78;4991741;28;20388;-75
2022/12/17 19:05:03;;;;;;;;;;;;;;;-144.99;100.00;52706.97;4986667;28;19971;-72
2022/12/17 19:07:30;;;;;;;;;;;;;;;-144.99;100.00;52672.31;4988189;28;19929;-72
2022/12/17 19:09:56;;;;;;;;;;;;;;;-144.99;100.00;52704.94;4989601;28;19929;-72
2022/12/17 19:12:23;;;;;;;;;;;;;;;-144.99;100.00;52651.94;4989621;28;19933;-73
2022/12/17 19:14:49;;;;;;;;;;;;;;;-144.99;100.00;52676.38;4984559;28;19926;-72
2022/12/17 19:17:16;;;;;;;;;;;;;;;-144.99;100.00;52700.84;4989034;28;19992;-72
2022/12/17 19:19:44;;;;;;;;;;;;;;;-144.99;100.00;52696.78;4988668;28;19936;-74
2022/12/17 19:22:10;;;;;;;;;;;;;;;-144.99;100.00;52696.78;4987797;28;19930;-75
2022/12/17 19:24:37;;;;;;;;;;;;;;;-144.99;100.00;52709.00;4986803;28;20208;-72
2022/12/17 19:27:04;;;;;;;;;;;;;;;-144.99;100.00;52680.47;4988523;28;19949;-71
2022/12/17 19:29:30;;;;;;;;;;;;;;;-144.99;100.00;52656.00;4986507;28;19929;-73
2022/12/17 19:31:57;;;;;;;;;;;;;;;-144.99;100.00;52651.94;4988229;28;19933;-73
2022/12/17 19:34:23;;;;;;;;;;;;;;;-144.99;100.00;52651.94;4990496;28;19930;-73
2022/12/17 19:36:51;;;;;;;;;;;;;;;-144.99;100.00;52627.47;4990041;28;20444;-74
2022/12/17 19:39:19;;;;;;;;;;;;;;;-144.99;100.00;52709.00;4995344;28;19941;-75
2022/12/17 19:41:49;;;;;;;;;;;;;;;-144.99;100.00;52676.38;4993340;28;19961;-74
2022/12/17 19:44:16;;;;;;;;;;;;;;;-144.99;100.00;52688.63;4978095;28;19995;-77
2022/12/17 19:46:43;;;;;;;;;;;;;;;-144.99;100.00;52680.47;4989568;28;19993;-77
2022/12/17 19:49:11;;;;;;;;;;;;;;;-144.99;100.00;52684.53;4990909;28;19941;-74
2022/12/17 19:51:39;;;;;;;;;;;;;;;-144.99;100.00;52651.94;4989849;28;19940;-74
2022/12/17 19:54:07;;;;;;;;;;;;;;;-144.99;100.00;52711.03;4990341;28;19937;-73
2022/12/17 19:56:33;;;;;;;;;;;;;;;-144.99;100.00;52692.69;4989996;28;19929;-74
2022/12/17 19:59:01;;;;;;;;;;;;;;;-144.99;100.00;52678.44;4981787;28;19930;-74
2022/12/17 20:01:29;;;;;;;;;;;;;;;-144.99;100.00;52643.78;4984577;28;19980;-74
2022/12/17 20:03:56;;;;;;;;;;;;;;;-144.99;100.00;52668.22;4988647;28;19940;-73
2022/12/17 20:06:24;;;;;;;;;;;;;;;-144.99;100.00;52684.53;4985887;28;19938;-75
2022/12/17 20:08:51;;;;;;;;;;;;;;;-144.99;100.00;52664.16;4985307;28;19980;-73
2022/12/17 20:11:35;;;;;;;;;;;;;;;-144.99;100.00;52684.53;4984138;28;20463;-72
2022/12/17 20:14:02;;;;;;;;;;;;;;;-144.99;100.00;52686.59;4982930;28;20035;-75
2022/12/17 20:16:29;;;;;;;;;;;;;;;-144.99;100.00;52696.78;4987059;28;19921;-75
2022/12/17 20:18:58;;;;;;;;;;;;;;;-144.99;100.00;52678.44;5005699;28;19928;-73
2022/12/17 20:21:24;;;;;;;;;;;;;;;-144.99;100.00;52686.59;4984523;28;19990;-72
2022/12/17 20:23:51;;;;;;;;;;;;;;;-144.99;100.00;52688.63;4983381;28;19937;-72
2022/12/17 20:26:19;;;;;;;;;;;;;;;-144.99;100.00;52662.13;4983791;28;20333;-74
2022/12/17 20:28:46;;;;;;;;;;;;;;;-144.99;100.00;52692.69;4984781;28;19930;-74
2022/12/17 20:31:12;;;;;;;;;;;;;;;-144.99;100.00;52702.88;4983327;28;19980;-74
2022/12/17 20:33:39;;;;;;;;;;;;;;;-144.99;100.00;52629.50;4983101;28;19937;-74
2022/12/17 20:36:07;;;;;;;;;;;;;;;-144.99;100.00;52676.38;4982123;28;19936;-75
2022/12/17 20:38:34;;;;;;;;;;;;;;;-144.99;100.00;52688.63;4984887;28;19937;-74
2022/12/17 20:41:01;;;;;;;;;;;;;;;-144.99;100.00;52649.88;4985421;28;19934;-73
2022/12/17 20:43:29;;;;;;;;;;;;;;;-144.99;100.00;52674.34;4988115;28;19991;-75
2022/12/17 20:45:55;;;;;;;;;;;;;;;-144.99;100.00;52658.03;4983492;28;19934;-72
2022/12/17 20:48:23;;;;;;;;;;;;;;;-144.99;100.00;52639.69;4984279;28;19945;-74
2022/12/17 20:50:50;;;;;;;;;;;;;;;-144.99;100.00;52647.84;4985917;28;19929;-75
2022/12/17 20:53:16;;;;;;;;;;;;;;;-144.99;100.00;52660.09;4986308;28;19957;-76
2022/12/17 20:55:43;;;;;;;;;;;;;;;-144.99;100.00;52678.44;4977352;28;19930;-76
2022/12/17 20:58:10;;;;;;;;;;;;;;;-144.99;100.00;52639.69;4976657;28;20420;-74
2022/12/17 21:00:38;;;;;;;;;;;;;;;-144.99;100.00;52647.84;4984116;28;19929;-75
2022/12/17 21:03:05;;;;;;;;;;;;;;;-144.99;100.00;52668.22;4984670;28;20471;-73
2022/12/17 21:05:31;;;;;;;;;;;;;;;-144.99;100.00;52668.22;4984986;28;19934;-73
2022/12/17 21:07:58;;;;;;;;;;;;;;;-144.99;100.00;52690.66;4990357;28;19930;-72
2022/12/17 21:10:24;;;;;;;;;;;;;;;-144.99;100.00;52635.63;4990937;28;20021;-73
2022/12/17 21:15:35;;;;;;;;;;;;;;;-144.99;100.00;52639.69;4988827;28;19972;-71
2022/12/17 21:18:03;;;;;;;;;;;;;;;-144.99;100.00;52651.94;4991158;28;20009;-75
2022/12/17 21:20:29;;;;;;;;;;;;;;;-144.99;100.00;52643.78;4990554;28;20472;-74
2022/12/17 21:22:56;;;;;;;;;;;;;;;-144.99;100.00;52692.69;4990526;28;19949;-74
2022/12/17 21:25:22;;;;;;;;;;;;;;;-144.99;100.00;52656.00;4989571;28;19956;-71
2022/12/17 21:27:49;;;;;;;;;;;;;;;-144.99;100.00;52664.16;4990207;28;19945;-73
2022/12/17 21:30:16;;;;;;;;;;;;;;;-144.99;100.00;52651.94;5001749;28;20413;-75
2022/12/17 21:32:42;;;;;;;;;;;;;;;-144.99;100.00;52676.38;4992128;28;19930;-72
2022/12/17 21:35:10;;;;;;;;;;;;;;;-144.99;100.00;52635.63;4992910;28;20029;-74
2022/12/17 21:37:37;;;;;;;;;;;;;;;-144.99;100.00;52656.00;4994902;28;19930;-74
2022/12/17 21:40:04;;;;;;;;;;;;;;;-144.99;100.00;52647.84;4996055;28;19952;-72
2022/12/17 21:45:14;;;;;;;;;;;;;;;-144.99;100.00;52676.38;4993088;28;19936;-74
2022/12/17 21:47:41;;;;;;;;;;;;;;;-144.99;100.00;52664.16;4992075;28;19937;-74
2022/12/17 21:50:08;;;;;;;;;;;;;;;-144.99;100.00;52698.81;4995788;28;19960;-74
2022/12/17 21:52:36;;;;;;;;;;;;;;;-144.99;100.00;52635.63;4995343;28;19926;-73
2022/12/17 21:55:03;;;;;;;;;;;;;;;-144.99;100.00;52643.78;4995695;28;19984;-72
2022/12/17 21:57:29;;;;;;;;;;;;;;;-144.99;100.00;52639.69;4986797;28;19930;-73
2022/12/17 21:59:56;;;;;;;;;;;;;;;-144.99;100.00;52656.00;4991281;28;19934;-74
2022/12/17 22:02:23;;;;;;;;;;;;;;;-144.99;100.00;52672.31;4985723;28;20452;-74
2022/12/17 22:04:49;;;;;;;;;;;;;;;-144.99;100.00;52664.16;4993549;28;19940;-77
2022/12/17 22:07:16;;;;;;;;;;;;;;;-144.99;100.00;52656.00;5008753;28;19926;-77
2022/12/17 22:09:44;;;;;;;;;;;;;;;-144.99;100.00;52664.16;4990703;28;20285;-73
2022/12/17 22:14:54;;;;;;;;;;;;;;;-144.99;100.00;52633.59;4988840;28;19985;-73
2022/12/17 22:17:21;;;;;;;;;;;;;;;-144.99;100.00;52668.22;4988490;28;20432;-74
2022/12/17 22:19:47;;;;;;;;;;;;;;;-144.99;100.00;52680.47;4987751;28;19938;-71
2022/12/17 22:22:14;;;;;;;;;;;;;;;-144.99;100.00;52627.47;4985462;28;19965;-74
2022/12/17 22:24:41;;;;;;;;;;;;;;;-144.99;100.00;52635.63;4986887;28;20055;-74
2022/12/17 22:27:09;;;;;;;;;;;;;;;-144.99;100.00;52670.28;4987281;28;20746;-74
2022/12/17 22:35:04;;;;;;;;;;;;;;;-144.99;100.00;52639.69;4985190;28;19979;-71
2022/12/17 22:37:30;;;;;;;;;;;;;;;-144.99;100.00;52668.22;4991211;28;19937;-75
2022/12/17 22:39:57;;;;;;;;;;;;;;;-144.99;100.00;52662.13;4991484;28;20286;-76
2022/12/17 22:45:08;;;;;;;;;;;;;;;-144.99;100.00;52653.97;4968206;28;19997;-76
2022/12/17 22:47:35;;;;;;;;;;;;;;;-144.99;100.00;52668.22;4988181;28;19940;-72
2022/12/17 22:50:02;;;;;;;;;;;;;;;-144.99;100.00;52660.09;4988361;28;19929;-74
2022/12/17 22:52:28;;;;;;;;;;;;;;;-144.99;100.00;52647.84;4987418;28;19960;-74
2022/12/17 22:54:55;;;;;;;;;;;;;;;-144.99;100.00;52613.19;4986094;28;20381;-70
2022/12/17 22:57:22;;;;;;;;;;;;;;;-144.99;99.90;52623.38;4987057;28;19934;-74
2022/12/17 22:59:50;;;;;;;;;;;;;;;-144.99;99.93;52696.78;4985963;28;20012;-75
2022/12/17 23:02:16;;;;;;;;;;;;;;;-144.99;100.00;52704.94;4986362;28;19977;-76
2022/12/17 23:04:43;;;;;;;;;;;;;;;-144.99;100.00;52668.22;4985849;28;20212;-74
2022/12/17 23:07:10;;;;;;;;;;;;;;;-144.99;100.00;52684.53;4985359;28;20381;-73
2022/12/17 23:09:36;;;;;;;;;;;;;;;-144.99;99.65;52660.09;4984884;28;19976;-74
2022/12/17 23:12:49;;;;;;;;;;;;;;;-144.99;99.29;52688.63;4984829;28;19966;-74
2022/12/17 23:14:51;;;;;;;;;;;;;;;-144.99;99.68;52709.00;4983030;28;20633;-73
2022/12/17 23:17:17;;;;;;;;;;;;;;;-144.99;99.24;52694.72;4984426;28;20016;-74
2022/12/17 23:19:44;;;;;;;;;;;;;;;-144.99;99.85;52664.16;4985176;28;19929;-74
2022/12/17 23:22:11;;;;;;;;;;;;;;;-144.99;99.71;52647.84;4983705;28;19930;-73
2022/12/17 23:24:37;;;;;;;;;;;;;;;-144.99;100.00;52651.94;4984712;28;19962;-73
2022/12/17 23:27:04;;;;;;;;;;;;;;;-144.99;99.76;52656.00;4986104;28;20402;-70
2022/12/17 23:29:30;;;;;;;;;;;;;;;-144.99;99.43;52651.94;4983939;28;19941;-71
2022/12/17 23:32:01;;;;;;;;;;;;;;;-144.99;98.73;52694.72;4984962;28;19933;-72
2022/12/17 23:34:28;;;;;;;;;;;;;;;-144.99;98.63;52625.44;4986474;28;19926;-73
2022/12/17 23:36:54;;;;;;;;;;;;;;;-144.99;98.96;52674.34;4987948;28;19953;-74
2022/12/17 23:39:21;;;;;;;;;;;;;;;-144.99;98.84;52641.72;4986096;28;19968;-72
2022/12/17 23:41:47;;;;;;;;;;;;;;;-144.99;98.60;52651.94;4980725;28;20487;-73
2022/12/17 23:44:14;;;;;;;;;;;;;;;-144.99;98.15;52664.16;4985151;28;20438;-71
2022/12/17 23:46:40;;;;;;;;;;;;;;;-144.99;98.22;52680.47;4987597;28;19964;-74
2022/12/17 23:49:08;;;;;;;;;;;;;;;-144.99;98.56;52656.00;4987970;28;20070;-73
2022/12/17 23:51:35;;;;;;;;;;;;;;;-144.99;98.06;52656.00;4995460;28;19914;-72
2022/12/17 23:54:02;;;;;;;;;;;;;;;-144.99;97.95;52700.84;4986981;28;19925;-73
2022/12/17 23:56:28;;;;;;;;;;;;;;;-144.99;97.85;52668.22;5012436;23;20044;-78
2022/12/17 23:58:57;;;;;;;;;;;;;;;-144.99;97.69;52713.09;5014384;28;19921;-79
